createdAt,value
2022-10-26T00:01:47.306Z,10.85
2022-10-26T00:04:55.226Z,14.77
2022-10-26T00:08:00.681Z,14.43
2022-10-26T00:11:05.606Z,14.65
2022-10-26T00:14:13.945Z,14.05
2022-10-26T00:17:21.880Z,15.73
2022-10-26T00:20:29.722Z,14.52
2022-10-26T00:23:34.821Z,15.40
2022-10-26T00:26:40.590Z,16.58
2022-10-26T00:29:45.658Z,19.27
2022-10-26T00:32:55.256Z,13.85
2022-10-26T00:36:00.693Z,15.93
2022-10-26T00:39:06.299Z,12.20
2022-10-26T00:42:13.190Z,17.50
2022-10-26T00:45:23.340Z,12.15
2022-10-26T00:48:32.905Z,14.85
2022-10-26T00:51:41.185Z,17.20
2022-10-26T00:54:46.638Z,16.75
2022-10-26T00:57:52.712Z,13.60
2022-10-26T01:00:57.745Z,12.25
2022-10-26T01:04:05.826Z,15.10
2022-10-26T01:07:11.521Z,12.90
2022-10-26T01:10:18.958Z,14.15
2022-10-26T01:13:25.726Z,10.98
2022-10-26T01:16:42.727Z,12.13
2022-10-26T01:20:02.885Z,12.55
2022-10-26T01:23:18.346Z,14.60
2022-10-26T01:26:36.920Z,16.40
2022-10-26T01:29:53.301Z,12.07
2022-10-26T01:33:11.423Z,12.63
2022-10-26T01:36:20.594Z,11.73
2022-10-26T01:39:31.324Z,12.50
2022-10-26T01:42:38.540Z,16.20
2022-10-26T01:45:45.479Z,18.13
2022-10-26T01:48:53.811Z,12.35
2022-10-26T01:52:01.716Z,13.40
2022-10-26T01:55:10.392Z,15.55
2022-10-26T01:58:22.585Z,12.30
2022-10-26T02:01:46.007Z,14.30
2022-10-26T02:05:01.385Z,14.80
2022-10-26T02:08:12.542Z,15.00
2022-10-26T02:11:22.829Z,15.27
2022-10-26T02:14:36.027Z,18.75
2022-10-26T02:17:44.934Z,14.00
2022-10-26T02:20:54.375Z,14.20
2022-10-26T02:24:01.650Z,17.45
2022-10-26T02:27:08.827Z,13.98
2022-10-26T02:30:15.310Z,14.65
2022-10-26T02:33:22.885Z,11.43
2022-10-26T02:36:34.133Z,12.73
2022-10-26T02:39:43.405Z,18.83
2022-10-26T02:42:51.357Z,13.60
2022-10-26T02:46:00.201Z,12.20
2022-10-26T02:49:05.382Z,15.20
2022-10-26T02:52:16.675Z,16.35
2022-10-26T02:55:23.104Z,15.52
2022-10-26T02:58:31.340Z,11.68
2022-10-26T03:01:44.677Z,12.82
2022-10-26T03:04:51.909Z,13.65
2022-10-26T03:07:59.998Z,14.32
2022-10-26T03:11:08.405Z,13.02
2022-10-26T03:14:13.735Z,13.00
2022-10-26T03:17:19.406Z,16.23
2022-10-26T03:20:26.683Z,11.45
2022-10-26T03:23:35.139Z,13.35
2022-10-26T03:26:41.513Z,16.80
2022-10-26T03:29:47.154Z,12.32
2022-10-26T03:32:56.198Z,17.50
2022-10-26T03:36:01.470Z,15.38
2022-10-26T03:39:11.758Z,19.05
2022-10-26T03:42:16.954Z,14.13
2022-10-26T03:45:24.139Z,18.20
2022-10-26T03:48:29.735Z,14.32
2022-10-26T03:51:34.650Z,14.95
2022-10-26T03:54:42.557Z,15.38
2022-10-26T03:57:48.491Z,16.50
2022-10-26T04:00:56.876Z,16.15
2022-10-26T04:04:01.904Z,18.88
2022-10-26T04:07:07.626Z,17.13
2022-10-26T04:10:15.473Z,16.55
2022-10-26T04:13:23.612Z,18.45
2022-10-26T04:16:33.448Z,14.85
2022-10-26T04:19:39.350Z,14.95
2022-10-26T04:22:45.954Z,15.57
2022-10-26T04:25:54.279Z,18.30
2022-10-26T04:29:02.802Z,19.52
2022-10-26T04:32:12.062Z,20.85
2022-10-26T04:35:19.695Z,21.08
2022-10-26T04:38:25.886Z,19.35
2022-10-26T04:41:37.175Z,20.27
2022-10-26T04:44:42.655Z,20.50
2022-10-26T04:47:47.827Z,21.23
2022-10-26T04:50:53.118Z,20.13
2022-10-26T04:53:58.406Z,21.83
2022-10-26T04:57:06.551Z,22.77
2022-10-26T05:00:15.914Z,20.35
2022-10-26T05:03:32.286Z,19.60
2022-10-26T05:06:37.333Z,23.33
2022-10-26T05:09:42.950Z,15.60
2022-10-26T05:12:57.355Z,21.13
2022-10-26T05:19:10.236Z,21.75
2022-10-26T05:22:15.874Z,21.55
2022-10-26T05:25:23.307Z,17.95
2022-10-26T05:28:33.510Z,21.85
2022-10-26T05:31:45.825Z,18.92
2022-10-26T05:34:54.966Z,27.88
2022-10-26T05:38:13.955Z,25.17
2022-10-26T05:41:19.360Z,27.40
2022-10-26T05:44:29.845Z,27.42
2022-10-26T05:47:35.895Z,32.30
2022-10-26T05:50:41.408Z,31.52
2022-10-26T05:53:47.520Z,71.32
2022-10-26T05:56:55.494Z,44.10
2022-10-26T06:00:04.938Z,52.47
2022-10-26T06:03:19.645Z,81.32
2022-10-26T06:06:28.260Z,67.53
2022-10-26T06:09:34.049Z,76.47
2022-10-26T06:12:39.862Z,54.65
2022-10-26T06:15:54.487Z,36.00
2022-10-26T06:19:05.840Z,48.72
2022-10-26T06:22:19.305Z,38.60
2022-10-26T06:25:30.909Z,33.53
2022-10-26T06:28:47.271Z,55.45
2022-10-26T06:32:00.285Z,53.70
2022-10-26T06:35:15.002Z,43.28
2022-10-26T06:38:23.279Z,72.75
2022-10-26T06:41:30.530Z,36.72
2022-10-26T06:44:36.511Z,82.82
2022-10-26T06:47:49.824Z,32.72
2022-10-26T06:50:56.703Z,62.08
2022-10-26T06:54:10.041Z,32.85
2022-10-26T06:57:18.531Z,54.25
2022-10-26T07:00:26.077Z,47.35
2022-10-26T07:03:34.387Z,42.67
2022-10-26T07:06:42.334Z,33.20
2022-10-26T07:09:55.699Z,72.65
2022-10-26T07:13:03.062Z,41.17
2022-10-26T07:16:10.100Z,36.97
2022-10-26T07:19:19.633Z,39.38
2022-10-26T07:22:25.582Z,33.63
2022-10-26T07:25:31.831Z,40.60
2022-10-26T07:28:37.650Z,54.35
2022-10-26T07:31:45.737Z,29.33
2022-10-26T07:34:56.129Z,39.00
2022-10-26T07:38:01.494Z,30.10
2022-10-26T07:41:08.160Z,26.40
2022-10-26T07:44:13.249Z,25.80
2022-10-26T07:47:18.956Z,39.75
2022-10-26T07:50:27.332Z,24.77
2022-10-26T07:53:35.381Z,27.13
2022-10-26T07:56:41.585Z,23.02
2022-10-26T07:59:50.926Z,32.65
2022-10-26T08:02:56.413Z,22.98
2022-10-26T08:06:07.224Z,29.92
2022-10-26T08:09:12.990Z,31.58
2022-10-26T08:12:22.685Z,29.02
2022-10-26T08:15:27.938Z,33.00
2022-10-26T08:18:37.437Z,21.90
2022-10-26T08:21:45.826Z,22.75
2022-10-26T08:24:53.577Z,18.05
2022-10-26T08:27:58.801Z,24.98
2022-10-26T08:31:07.643Z,25.40
2022-10-26T08:34:12.744Z,26.73
2022-10-26T08:37:21.412Z,29.80
2022-10-26T08:40:28.802Z,22.13
2022-10-26T08:43:37.902Z,23.90
2022-10-26T08:46:45.868Z,26.50
2022-10-26T08:49:54.039Z,28.27
2022-10-26T08:53:06.975Z,21.42
2022-10-26T08:56:15.110Z,21.50
2022-10-26T08:59:22.851Z,22.63
2022-10-26T09:02:28.904Z,25.05
2022-10-26T09:05:39.798Z,18.92
2022-10-26T09:08:52.254Z,21.10
2022-10-26T09:12:03.289Z,23.02
2022-10-26T09:15:15.600Z,24.27
2022-10-26T09:18:27.494Z,18.45
2022-10-26T09:24:48.098Z,18.40
2022-10-26T09:27:55.132Z,21.58
2022-10-26T09:31:04.499Z,18.55
2022-10-26T09:34:11.412Z,17.30
2022-10-26T09:37:21.626Z,18.33
2022-10-26T09:40:34.526Z,19.02
2022-10-26T09:46:49.653Z,21.63
2022-10-26T09:49:59.994Z,19.85
2022-10-26T09:53:05.570Z,17.33
2022-10-26T09:56:16.683Z,20.02
2022-10-26T09:59:28.415Z,20.27
2022-10-26T10:02:44.209Z,21.83
2022-10-26T10:05:53.162Z,19.08
2022-10-26T10:09:12.042Z,19.00
2022-10-26T10:12:25.002Z,17.08
2022-10-26T10:15:30.456Z,21.20
2022-10-26T10:18:39.063Z,22.40
2022-10-26T10:21:52.464Z,19.88
2022-10-26T10:24:58.819Z,21.75
2022-10-26T10:28:22.558Z,21.52
2022-10-26T10:31:32.483Z,25.02
2022-10-26T10:34:40.008Z,23.83
2022-10-26T10:37:47.726Z,21.98
2022-10-26T10:40:55.668Z,21.83
2022-10-26T10:44:09.300Z,26.50
2022-10-26T10:47:21.413Z,22.85
2022-10-26T10:53:34.748Z,23.25
2022-10-26T10:56:44.660Z,23.83
2022-10-26T10:59:59.877Z,24.30
2022-10-26T11:03:19.211Z,19.10
2022-10-26T11:06:29.138Z,23.60
2022-10-26T11:09:39.330Z,22.52
2022-10-26T11:12:49.267Z,21.05
2022-10-26T11:16:07.471Z,23.30
2022-10-26T11:19:20.057Z,27.25
2022-10-26T11:22:38.021Z,24.67
2022-10-26T11:25:48.171Z,27.15
2022-10-26T11:28:59.763Z,29.13
2022-10-26T11:32:10.521Z,33.70
2022-10-26T11:35:18.181Z,32.97
2022-10-26T11:38:39.024Z,32.08
2022-10-26T11:41:59.250Z,32.65
2022-10-26T11:45:06.459Z,31.77
2022-10-26T11:48:19.854Z,30.13
2022-10-26T11:51:37.110Z,31.40
2022-10-26T11:54:49.347Z,31.58
2022-10-26T11:57:56.375Z,32.20
2022-10-26T12:01:05.050Z,31.40
2022-10-26T12:04:14.090Z,28.15
2022-10-26T12:07:28.453Z,27.27
2022-10-26T12:10:36.915Z,27.58
2022-10-26T12:13:45.250Z,27.40
2022-10-26T12:16:55.055Z,23.73
2022-10-26T12:20:10.804Z,25.20
2022-10-26T12:23:33.824Z,24.88
2022-10-26T12:26:53.594Z,23.67
2022-10-26T12:30:28.233Z,24.58
2022-10-26T12:33:52.501Z,27.55
2022-10-26T12:37:13.140Z,23.95
2022-10-26T12:40:46.551Z,22.25
2022-10-26T12:44:04.883Z,24.40
2022-10-26T12:47:13.908Z,26.77
2022-10-26T12:50:28.625Z,22.25
2022-10-26T12:53:35.035Z,23.80
2022-10-26T12:56:46.302Z,26.65
2022-10-26T12:59:59.365Z,23.77
2022-10-26T13:03:15.592Z,20.17
2022-10-26T13:06:31.242Z,23.55
2022-10-26T13:09:38.599Z,21.85
2022-10-26T13:12:49.921Z,19.60
2022-10-26T13:16:00.722Z,18.77
2022-10-26T13:19:06.648Z,16.80
2022-10-26T13:22:17.421Z,19.65
2022-10-26T13:25:26.192Z,18.08
2022-10-26T13:28:35.413Z,19.20
2022-10-26T13:31:56.324Z,18.00
2022-10-26T13:35:05.728Z,17.65
2022-10-26T13:38:13.364Z,16.60
2022-10-26T13:41:26.048Z,14.90
2022-10-26T13:44:37.224Z,18.10
2022-10-26T13:47:46.234Z,17.98
2022-10-26T13:54:07.177Z,17.65
2022-10-26T13:57:20.559Z,16.80
2022-10-26T14:00:29.778Z,16.42
2022-10-26T14:03:40.176Z,19.90
2022-10-26T14:06:51.878Z,14.00
2022-10-26T14:09:59.603Z,14.23
2022-10-26T14:13:12.713Z,16.67
2022-10-26T14:16:22.843Z,23.48
2022-10-26T14:19:28.860Z,13.82
2022-10-26T14:22:45.250Z,15.75
2022-10-26T14:25:59.131Z,14.52
2022-10-26T14:29:07.094Z,13.82
2022-10-26T14:32:24.195Z,15.90
2022-10-26T14:35:33.021Z,14.20
2022-10-26T14:38:46.898Z,18.33
2022-10-26T14:41:56.187Z,16.58
2022-10-26T14:45:18.988Z,15.23
2022-10-26T14:48:33.007Z,15.27
2022-10-26T14:51:38.995Z,15.05
2022-10-26T14:55:04.406Z,18.08
2022-10-26T14:58:23.121Z,18.25
2022-10-26T15:01:36.862Z,16.48
2022-10-26T15:04:44.729Z,16.38
2022-10-26T15:07:53.772Z,14.32
2022-10-26T15:11:01.325Z,14.23
2022-10-26T15:14:14.841Z,12.65
2022-10-26T15:17:23.472Z,14.60
2022-10-26T15:20:30.387Z,13.55
2022-10-26T15:30:14.010Z,14.35
2022-10-26T15:33:25.689Z,16.27
2022-10-26T15:36:32.840Z,16.63
2022-10-26T15:39:40.181Z,18.88
2022-10-26T15:42:53.578Z,18.70
2022-10-26T15:46:02.434Z,19.70
2022-10-26T15:49:11.122Z,18.50
2022-10-26T15:52:16.643Z,16.85
2022-10-26T15:55:24.310Z,16.23
2022-10-26T15:58:32.451Z,21.70
2022-10-26T16:01:46.414Z,19.95
2022-10-26T16:04:56.543Z,20.17
2022-10-26T16:08:02.820Z,18.23
2022-10-26T16:11:08.741Z,23.23
2022-10-26T16:14:19.511Z,20.25
2022-10-26T16:17:42.241Z,20.30
2022-10-26T16:20:54.088Z,19.48
2022-10-26T16:24:00.678Z,21.17
2022-10-26T16:27:08.600Z,26.00
2022-10-26T16:30:16.254Z,26.05
2022-10-26T16:33:51.563Z,24.40
2022-10-26T16:37:06.512Z,27.08
2022-10-26T16:40:13.569Z,22.83
2022-10-26T16:43:25.766Z,23.67
2022-10-26T16:46:31.621Z,22.25
2022-10-26T16:49:47.413Z,27.50
2022-10-26T16:52:55.667Z,27.20
2022-10-26T16:56:05.018Z,30.00
2022-10-26T16:59:09.919Z,27.70
2022-10-26T17:02:18.495Z,27.50
2022-10-26T17:05:26.043Z,24.98
2022-10-26T17:08:36.682Z,26.20
2022-10-26T17:11:41.790Z,24.20
2022-10-26T17:14:48.645Z,23.45
2022-10-26T17:17:56.840Z,26.60
2022-10-26T17:21:08.804Z,25.05
2022-10-26T17:24:20.043Z,27.77
2022-10-26T17:27:26.858Z,26.00
2022-10-26T17:30:34.300Z,26.40
2022-10-26T17:33:42.312Z,24.58
2022-10-26T17:36:50.458Z,30.00
2022-10-26T17:40:01.968Z,25.65
2022-10-26T17:43:07.294Z,25.38
2022-10-26T17:46:24.074Z,27.27
2022-10-26T17:49:35.806Z,27.85
2022-10-26T17:52:41.784Z,25.95
2022-10-26T17:55:49.781Z,26.95
2022-10-26T17:58:56.190Z,25.88
2022-10-26T18:02:05.253Z,28.85
2022-10-26T18:05:11.343Z,27.27
2022-10-26T18:08:16.522Z,24.63
2022-10-26T18:11:27.672Z,26.60
2022-10-26T18:14:32.785Z,28.42
2022-10-26T18:17:40.881Z,25.95
2022-10-26T18:20:45.894Z,25.75
2022-10-26T18:23:51.261Z,22.35
2022-10-26T18:26:58.906Z,24.40
2022-10-26T18:30:07.034Z,27.02
2022-10-26T18:33:12.194Z,26.98
2022-10-26T18:36:19.955Z,24.40
2022-10-26T18:39:26.865Z,23.20
2022-10-26T18:45:45.487Z,24.95
2022-10-26T18:48:53.136Z,25.27
2022-10-26T18:51:59.493Z,22.27
2022-10-26T18:55:07.141Z,24.63
2022-10-26T18:58:14.256Z,21.45
2022-10-26T19:01:23.667Z,25.20
2022-10-26T19:04:28.865Z,24.40
2022-10-26T19:07:34.933Z,21.83
2022-10-26T19:10:40.115Z,20.90
2022-10-26T19:13:46.939Z,24.08
2022-10-26T19:16:56.340Z,21.88
2022-10-26T19:20:03.678Z,23.85
2022-10-26T19:23:10.011Z,22.00
2022-10-26T19:26:19.012Z,22.52
2022-10-26T19:29:30.500Z,21.65
2022-10-26T19:32:42.382Z,21.25
2022-10-26T19:35:48.793Z,20.05
2022-10-26T19:38:54.986Z,18.13
2022-10-26T19:42:00.543Z,22.75
2022-10-26T19:45:08.291Z,18.33
2022-10-26T19:48:16.646Z,22.00
2022-10-26T19:51:22.990Z,25.60
2022-10-26T19:54:28.423Z,22.02
2022-10-26T19:57:34.815Z,20.40
2022-10-26T20:00:43.218Z,21.55
2022-10-26T20:03:51.479Z,24.25
2022-10-26T20:06:56.734Z,21.13
2022-10-26T20:10:03.271Z,23.95
2022-10-26T20:13:08.417Z,21.75
2022-10-26T20:16:23.500Z,21.95
2022-10-26T20:19:39.725Z,21.20
2022-10-26T20:22:45.502Z,16.33
2022-10-26T20:25:56.390Z,19.10
2022-10-26T20:29:03.468Z,19.45
2022-10-26T20:32:11.112Z,19.70
2022-10-26T20:35:25.194Z,15.80
2022-10-26T20:38:30.709Z,17.52
2022-10-26T20:41:39.939Z,18.80
2022-10-26T20:44:46.036Z,18.70
2022-10-26T20:47:54.732Z,19.80
2022-10-26T20:51:09.691Z,18.48
2022-10-26T20:54:20.103Z,16.90
2022-10-26T20:57:28.262Z,20.52
2022-10-26T21:00:35.223Z,15.07
2022-10-26T21:03:40.191Z,18.30
2022-10-26T21:06:48.597Z,15.90
2022-10-26T21:09:53.843Z,21.13
2022-10-26T21:12:59.395Z,16.30
2022-10-26T21:16:06.527Z,16.60
2022-10-26T21:19:12.795Z,18.27
2022-10-26T21:22:20.453Z,17.52
2022-10-26T21:25:27.185Z,17.23
2022-10-26T21:28:36.484Z,17.85
2022-10-26T21:31:44.874Z,19.40
2022-10-26T21:34:50.193Z,17.10
2022-10-26T21:37:59.393Z,16.13
2022-10-26T21:41:06.681Z,18.08
2022-10-26T21:44:24.707Z,18.02
2022-10-26T21:47:42.174Z,16.52
2022-10-26T21:50:47.619Z,17.48
2022-10-26T21:53:58.138Z,17.90
2022-10-26T21:57:04.112Z,17.38
2022-10-26T22:00:10.608Z,19.55
2022-10-26T22:03:15.863Z,16.88
2022-10-26T22:06:22.669Z,16.08
2022-10-26T22:09:30.679Z,18.95
2022-10-26T22:12:37.772Z,20.20
2022-10-26T22:15:43.081Z,18.20
2022-10-26T22:18:48.351Z,20.50
2022-10-26T22:21:53.880Z,18.85
2022-10-26T22:25:01.450Z,19.30
2022-10-26T22:28:12.735Z,16.42
2022-10-26T22:31:23.151Z,20.95
2022-10-26T22:34:29.148Z,18.83
2022-10-26T22:37:35.531Z,16.17
2022-10-26T22:40:44.935Z,19.70
2022-10-26T22:43:53.710Z,17.55
2022-10-26T22:47:02.669Z,21.83
2022-10-26T22:50:24.106Z,18.13
2022-10-26T22:53:31.716Z,17.23
2022-10-26T22:56:39.864Z,20.02
2022-10-26T22:59:46.047Z,15.60
2022-10-26T23:02:51.224Z,17.13
2022-10-26T23:06:00.397Z,16.80
2022-10-26T23:09:10.991Z,17.77
2022-10-26T23:12:19.137Z,15.35
2022-10-26T23:16:10.830Z,19.92
2022-10-26T23:19:41.105Z,17.25
2022-10-26T23:22:54.731Z,14.70
2022-10-26T23:26:05.322Z,15.67
2022-10-26T23:29:17.655Z,19.17
2022-10-26T23:32:27.614Z,18.02
2022-10-26T23:35:33.281Z,17.15
2022-10-26T23:38:40.935Z,15.85
2022-10-26T23:41:46.550Z,18.25
2022-10-26T23:44:54.428Z,14.30
2022-10-26T23:48:03.755Z,16.55
2022-10-26T23:51:10.162Z,14.95
2022-10-26T23:54:16.493Z,16.75
2022-10-26T23:57:21.591Z,16.52
